Time;durP1;ratioP1;P1;durP2;ratioP2;P2;SDS_P1;SDS_P2;PMS_P1;PMS_P2;Temp;Humidity;BMP_temperature;BMP_pressure;BME280_temperature;BME280_humidity;BME280_pressure;Samples;Min_cycle;Max_cycle;Signal;HPM_P1;HPM_P2
2021/12/16 00:06:58;;;;;;;9.23;8.30;;;;;;;2.07;100.00;92952.81;5039213;28;20473;-71
2021/12/16 00:09:37;;;;;;;23.70;9.07;;;;;;;2.30;100.00;92975.09;5039525;28;20458;-71
2021/12/16 00:31:44;;;;;;;9.97;7.70;;;;;;;1.66;100.00;92972.09;5038888;28;20576;-71
2021/12/16 00:34:11;;;;;;;6.17;5.63;;;;;;;1.62;100.00;92977.91;5038800;28;20968;-71
2021/12/16 00:36:41;;;;;;;8.73;7.33;;;;;;;1.57;100.00;92974.63;5038655;28;20489;-71
2021/12/16 00:39:11;;;;;;;8.70;5.97;;;;;;;1.64;100.00;92982.03;5039373;28;20613;-71
2021/12/16 00:41:43;;;;;;;5.23;4.50;;;;;;;1.46;100.00;92989.59;5038968;28;20560;-71
2021/12/16 00:44:21;;;;;;;6.47;6.10;;;;;;;1.36;100.00;92987.94;5038169;28;20570;-71
2021/12/16 00:47:00;;;;;;;5.70;5.13;;;;;;;1.45;100.00;92987.94;5038525;28;20519;-71
2021/12/16 00:49:40;;;;;;;6.07;4.53;;;;;;;1.39;100.00;92984.63;5038153;28;20588;-71
2021/12/16 00:55:04;;;;;;;8.17;6.43;;;;;;;1.41;100.00;92991.25;5039320;28;20614;-71
2021/12/16 00:57:32;;;;;;;3.80;3.57;;;;;;;1.47;100.00;92991.22;5039334;28;20542;-71
2021/12/16 01:00:03;;;;;;;4.33;4.07;;;;;;;1.56;100.00;92986.25;5038658;28;20603;-71
2021/12/16 01:05:47;;;;;;;13.40;4.90;;;;;;;1.45;100.00;92989.59;5020778;28;20226;-70
2021/12/16 01:35:54;;;;;;;3.90;3.63;;;;;;;1.08;100.00;92976.38;5038011;28;20496;-71
2021/12/16 01:41:54;;;;;;;4.20;4.00;;;;;;;0.66;100.00;92955.72;5000619;28;20289;-71
2021/12/16 01:49:55;;;;;;;4.30;3.53;;;;;;;0.53;100.00;92939.16;5026723;28;20479;-71
2021/12/16 01:55:15;;;;;;;2.70;2.67;;;;;;;0.66;100.00;92939.97;5027296;28;20221;-71
2021/12/16 01:57:46;;;;;;;2.93;2.83;;;;;;;0.69;100.00;92939.97;5037695;28;20193;-71
2021/12/16 02:00:18;;;;;;;4.37;2.27;;;;;;;0.70;100.00;92937.47;5036972;28;20203;-71
2021/12/16 02:02:50;;;;;;;2.87;2.77;;;;;;;0.69;100.00;92935.00;5037117;28;20559;-71
2021/12/16 02:05:40;;;;;;;2.53;2.33;;;;;;;0.70;100.00;92937.47;5037661;28;20546;-71
2021/12/16 02:08:20;;;;;;;1.93;1.83;;;;;;;0.70;100.00;92935.00;5037620;28;20616;-71
2021/12/16 02:10:57;;;;;;;4.07;3.77;;;;;;;0.64;100.00;92925.06;5037879;28;20469;-71
2021/12/16 02:13:49;;;;;;;5.43;4.97;;;;;;;0.68;100.00;92934.16;5037162;28;20633;-71
2021/12/16 02:30:54;;;;;;;2.70;2.60;;;;;;;0.19;100.00;92935.00;5034945;28;20455;-71
2021/12/16 02:33:19;;;;;;;1.90;1.67;;;;;;;0.31;100.00;92952.41;5036590;28;20526;-72
2021/12/16 02:35:48;;;;;;;1.53;1.53;;;;;;;0.09;100.00;92944.09;5036731;28;20711;-71
2021/12/16 02:38:20;;;;;;;1.80;1.80;;;;;;;0.16;100.00;92944.94;5036422;28;20565;-71
2021/12/16 02:40:49;;;;;;;2.67;1.37;;;;;;;0.33;100.00;92950.75;5036599;28;20240;-71
2021/12/16 02:43:49;;;;;;;4.50;2.50;;;;;;;0.17;100.00;92949.88;5036957;28;20601;-71
2021/12/16 02:48:57;;;;;;;4.83;3.57;;;;;;;-0.05;100.00;92930.81;5036982;28;20661;-71
2021/12/16 02:51:27;;;;;;;3.30;3.10;;;;;;;0.11;100.00;92944.94;5036972;28;20554;-71
2021/12/16 02:53:58;;;;;;;4.43;3.40;;;;;;;0.07;100.00;92932.47;5036254;28;20458;-71
2021/12/16 02:56:26;;;;;;;2.20;2.20;;;;;;;0.05;100.00;92926.72;5036208;28;20599;-71
2021/12/16 02:58:55;;;;;;;1.53;1.53;;;;;;;0.08;100.00;92934.97;5036510;28;20701;-71
2021/12/16 03:01:28;;;;;;;1.40;1.40;;;;;;;0.13;100.00;92937.47;5036371;28;20557;-71
2021/12/16 03:03:57;;;;;;;1.63;1.63;;;;;;;-0.03;100.00;92926.69;5035779;28;20597;-71
2021/12/16 03:06:26;;;;;;;2.83;2.20;;;;;;;-0.15;100.00;92907.63;5036176;28;20540;-71
2021/12/16 03:08:55;;;;;;;2.90;2.67;;;;;;;0.07;100.00;92930.84;5035749;28;20631;-71
2021/12/16 03:11:26;;;;;;;2.50;1.93;;;;;;;-0.20;100.00;92899.34;5035927;28;20632;-71
2021/12/16 03:14:18;;;;;;;1.87;1.87;;;;;;;0.02;100.00;92931.66;5035849;28;20475;-71
2021/12/16 03:16:58;;;;;;;5.83;5.40;;;;;;;0.02;100.00;92929.16;5035591;28;20608;-72
2021/12/16 03:19:37;;;;;;;1.73;1.63;;;;;;;-0.01;100.00;92930.84;5035983;28;20632;-72
2021/12/16 03:22:05;;;;;;;3.70;3.50;;;;;;;0.06;100.00;92923.41;5036819;28;20491;-72
2021/12/16 03:24:59;;;;;;;3.23;3.13;;;;;;;-0.06;100.00;92922.53;5035335;28;20300;-72
2021/12/16 03:27:46;;;;;;;2.77;2.50;;;;;;;-0.19;100.00;92920.88;5035686;28;20453;-72
2021/12/16 03:35:51;;;;;;;3.73;3.63;;;;;;;0.09;100.00;92928.38;5035489;28;20256;-72
2021/12/16 03:38:19;;;;;;;2.87;2.77;;;;;;;0.04;100.00;92930.00;5036102;28;20632;-72
2021/12/16 03:40:48;;;;;;;1.90;1.87;;;;;;;0.16;100.00;92935.00;5035879;28;20609;-72
2021/12/16 03:43:19;;;;;;;5.50;4.43;;;;;;;-0.01;100.00;92910.97;5035223;28;20189;-72
2021/12/16 03:48:40;;;;;;;4.60;4.10;;;;;;;-0.02;100.00;92934.16;5035643;28;20581;-72
2021/12/16 03:51:10;;;;;;;3.77;3.67;;;;;;;-0.02;100.00;92939.13;5035601;28;20457;-72
2021/12/16 03:53:38;;;;;;;4.03;2.67;;;;;;;-0.09;100.00;92930.00;5035574;28;20674;-72
2021/12/16 03:56:07;;;;;;;5.27;3.50;;;;;;;-0.13;100.00;92917.56;5036236;28;20213;-71
2021/12/16 03:58:34;;;;;;;4.07;3.00;;;;;;;-0.08;100.00;92935.78;5035342;28;20573;-71
2021/12/16 04:01:05;;;;;;;4.67;4.33;;;;;;;-0.11;100.00;92939.06;5035324;28;20245;-72
2021/12/16 04:03:33;;;;;;;5.30;4.90;;;;;;;-0.16;100.00;92935.75;5035242;28;20562;-71
2021/12/16 04:06:00;;;;;;;3.37;3.27;;;;;;;-0.25;100.00;92930.78;5036010;28;20634;-72
2021/12/16 04:08:28;;;;;;;4.60;4.23;;;;;;;-0.21;100.00;92939.88;5035623;28;20554;-72
2021/12/16 04:11:05;;;;;;;8.33;4.67;;;;;;;-0.17;100.00;92944.03;5035355;28;20602;-71
2021/12/16 04:13:41;;;;;;;6.73;6.07;;;;;;;-0.37;100.00;92934.88;5035835;28;20533;-71
2021/12/16 04:16:09;;;;;;;5.07;4.77;;;;;;;-0.33;100.00;92949.78;5035734;28;20220;-71
2021/12/16 04:18:36;;;;;;;5.83;5.53;;;;;;;-0.45;100.00;92937.31;5035187;28;20252;-71
2021/12/16 04:21:03;;;;;;;4.27;3.97;;;;;;;-0.52;100.00;92941.47;5035296;28;20644;-71
2021/12/16 04:23:31;;;;;;;6.47;6.17;;;;;;;-0.57;100.00;92927.38;5035204;28;20516;-71
2021/12/16 04:25:58;;;;;;;13.43;7.60;;;;;;;-0.44;100.00;92937.34;5034998;28;20241;-71
2021/12/16 04:28:30;;;;;;;10.17;7.67;;;;;;;-0.62;100.00;92927.34;5035154;28;20295;-71
2021/12/16 04:30:59;;;;;;;8.23;6.40;;;;;;;-0.53;100.00;92936.47;5034601;28;20563;-71
2021/12/16 04:33:27;;;;;;;7.43;6.83;;;;;;;-0.48;100.00;92932.38;5035160;28;20520;-71
2021/12/16 04:35:54;;;;;;;5.67;5.40;;;;;;;-0.57;100.00;92935.66;5035437;28;20543;-71
2021/12/16 04:38:21;;;;;;;4.93;4.27;;;;;;;-0.59;100.00;92907.53;5035210;28;20477;-71
2021/12/16 04:40:49;;;;;;;5.30;4.80;;;;;;;-0.58;100.00;92931.50;5038901;28;20197;-71
2021/12/16 04:43:20;;;;;;;4.67;4.50;;;;;;;-0.54;100.00;92922.41;5038431;28;20592;-71
2021/12/16 04:45:48;;;;;;;4.40;4.13;;;;;;;-0.73;100.00;92933.09;5039212;28;20193;-71
2021/12/16 04:48:17;;;;;;;11.77;4.47;;;;;;;-0.66;100.00;92929.81;5038372;28;20201;-71
2021/12/16 04:50:44;;;;;;;5.13;4.73;;;;;;;-0.80;100.00;92922.34;5038848;28;20511;-71
2021/12/16 04:53:12;;;;;;;12.00;5.43;;;;;;;-0.86;100.00;92920.66;5038859;28;20504;-72
2021/12/16 04:55:39;;;;;;;8.37;6.47;;;;;;;-0.94;100.00;92916.47;5038865;28;20597;-72
2021/12/16 04:58:06;;;;;;;6.60;5.80;;;;;;;-0.84;100.00;92921.47;5038887;28;20271;-71
2021/12/16 05:00:34;;;;;;;8.90;8.37;;;;;;;-0.86;100.00;92913.22;5038427;28;20631;-72
2021/12/16 05:03:01;;;;;;;16.97;7.37;;;;;;;-0.82;100.00;92923.13;5018191;28;20554;-72
2021/12/16 05:05:30;;;;;;;22.20;17.33;;;;;;;-0.66;100.00;92927.31;5028807;28;20571;-72
2021/12/16 05:07:57;;;;;;;23.77;15.67;;;;;;;-0.61;100.00;92915.75;5039043;28;20552;-71
2021/12/16 05:10:24;;;;;;;32.77;22.13;;;;;;;-0.68;100.00;92919.06;5038266;28;20690;-71
2021/12/16 05:12:55;;;;;;;33.80;20.53;;;;;;;-0.67;100.00;92921.53;5037811;28;20533;-71
2021/12/16 05:15:30;;;;;;;27.93;19.97;;;;;;;-0.64;100.00;92913.28;5038022;28;20212;-72
2021/12/16 05:17:59;;;;;;;30.07;22.13;;;;;;;-0.47;100.00;92929.91;5037389;28;20645;-71
2021/12/16 05:20:32;;;;;;;14.20;12.97;;;;;;;-0.79;100.00;92890.91;5038571;28;20461;-71
2021/12/16 05:25:58;;;;;;;11.70;10.70;;;;;;;-0.31;100.00;92925.81;5016969;28;20346;-71
2021/12/16 05:28:27;;;;;;;15.93;12.60;;;;;;;-0.22;100.00;92934.91;5025112;28;20669;-72
2021/12/16 05:30:54;;;;;;;17.50;13.00;;;;;;;-0.21;100.00;92937.41;5024791;28;20565;-71
2021/12/16 05:33:24;;;;;;;14.87;12.40;;;;;;;-0.17;100.00;92926.66;5030818;28;20483;-71
2021/12/16 05:35:54;;;;;;;18.60;10.97;;;;;;;-0.14;100.00;92928.31;5033096;28;20490;-71
2021/12/16 05:38:22;;;;;;;17.63;13.37;;;;;;;-0.20;100.00;92919.22;5029073;28;20466;-70
2021/12/16 05:40:49;;;;;;;15.63;13.63;;;;;;;-0.17;100.00;92924.16;5021604;28;20460;-72
2021/12/16 05:43:21;;;;;;;14.20;10.60;;;;;;;-0.08;100.00;92938.25;5028702;28;20618;-72
2021/12/16 05:45:48;;;;;;;14.30;11.60;;;;;;;-0.09;100.00;92930.00;5032103;28;20202;-72
2021/12/16 05:48:18;;;;;;;13.33;10.10;;;;;;;-0.07;100.00;92932.47;5029733;28;20478;-73
2021/12/16 05:50:54;;;;;;;16.87;11.27;;;;;;;-0.12;100.00;92929.16;5022571;28;20572;-72
2021/12/16 05:53:22;;;;;;;17.97;9.63;;;;;;;-0.52;100.00;92886.88;5028752;28;20466;-72
2021/12/16 05:55:50;;;;;;;21.57;12.67;;;;;;;-0.19;100.00;92935.75;5032931;28;20531;-73
2021/12/16 05:58:19;;;;;;;10.93;10.07;;;;;;;-0.19;100.00;92938.25;5029565;28;20608;-73
2021/12/16 06:00:49;;;;;;;7.97;7.30;;;;;;;-0.28;100.00;92938.19;5025865;28;20563;-72
2021/12/16 06:03:17;;;;;;;9.40;6.97;;;;;;;-0.33;100.00;92942.31;5026416;28;20544;-72
2021/12/16 06:05:44;;;;;;;17.87;13.83;;;;;;;-0.39;100.00;92937.34;5027593;28;20209;-73
2021/12/16 06:08:13;;;;;;;13.80;12.70;;;;;;;-0.36;100.00;92924.97;5021740;28;20593;-72
2021/12/16 06:11:13;;;;;;;27.87;13.40;;;;;;;-0.38;100.00;92914.19;5034997;28;20639;-74
2021/12/16 06:13:45;;;;;;;23.40;14.23;;;;;;;-0.35;100.00;92921.66;5023354;28;20228;-73
2021/12/16 06:27:16;;;;;;;30.90;10.67;;;;;;;-0.08;100.00;92944.06;5020890;28;20519;-74
2021/12/16 06:29:46;;;;;;;14.20;10.43;;;;;;;-0.23;100.00;92929.16;5025926;28;20263;-75
2021/12/16 06:32:14;;;;;;;28.07;16.20;;;;;;;-0.16;100.00;92945.69;5033784;28;20585;-74
2021/12/16 06:34:42;;;;;;;27.20;15.43;;;;;;;-0.20;100.00;92939.06;5031735;28;20606;-73
2021/12/16 06:37:10;;;;;;;27.00;18.50;;;;;;;-0.13;100.00;92934.94;5033599;28;20517;-73
2021/12/16 06:39:39;;;;;;;20.07;13.97;;;;;;;-0.02;100.00;92949.03;5034767;28;20568;-73
2021/12/16 06:42:08;;;;;;;31.23;16.37;;;;;;;0.04;100.00;92949.88;5028800;28;20635;-72
2021/12/16 06:44:41;;;;;;;17.43;12.67;;;;;;;-0.07;100.00;92945.72;5025179;28;20542;-72
2021/12/16 06:47:13;;;;;;;24.03;13.30;;;;;;;-0.29;100.00;92918.38;5025418;28;20602;-74
2021/12/16 06:49:43;;;;;;;34.40;17.87;;;;;;;-0.40;100.00;92902.63;5027418;28;20587;-75
2021/12/16 06:52:14;;;;;;;30.07;17.17;;;;;;;-0.35;100.00;92900.97;5033014;28;20485;-73
2021/12/16 06:54:57;;;;;;;31.57;16.67;;;;;;;-0.02;100.00;92943.25;5022750;28;20625;-73
2021/12/16 06:57:34;;;;;;;27.77;17.93;;;;;;;0.17;100.00;92942.44;5026073;28;20577;-73
2021/12/16 07:00:08;;;;;;;32.10;18.07;;;;;;;0.31;100.00;92947.41;5031581;28;20509;-73
2021/12/16 07:02:50;;;;;;;36.10;18.60;;;;;;;0.32;100.00;92934.19;5029722;28;20717;-73
2021/12/16 07:05:20;;;;;;;18.10;14.33;;;;;;;0.58;100.00;92944.09;5024580;28;20568;-73
2021/12/16 07:07:48;;;;;;;27.43;16.77;;;;;;;0.66;100.00;92949.91;5017449;28;20625;-74
2021/12/16 07:10:19;;;;;;;28.43;16.33;;;;;;;0.68;100.00;92949.06;5017909;28;20637;-73
2021/12/16 07:12:48;;;;;;;18.57;16.37;;;;;;;0.61;100.00;92942.47;5027602;28;20490;-73
2021/12/16 07:15:20;;;;;;;30.53;23.10;;;;;;;0.67;100.00;92937.50;5030572;28;20502;-73
2021/12/16 07:17:48;;;;;;;28.03;16.90;;;;;;;0.67;100.00;92942.47;5020314;28;20485;-73
2021/12/16 07:20:18;;;;;;;32.87;22.90;;;;;;;0.65;100.00;92939.16;5026571;28;20700;-72
2021/12/16 07:22:47;;;;;;;47.27;21.13;;;;;;;0.62;100.00;92941.63;5029712;28;20519;-73
2021/12/16 07:25:16;;;;;;;24.83;18.90;;;;;;;0.64;100.00;92951.56;5027870;28;20500;-73
2021/12/16 07:27:45;;;;;;;41.30;22.90;;;;;;;0.68;100.00;92946.59;5027769;28;20479;-73
2021/12/16 07:30:15;;;;;;;60.70;33.93;;;;;;;0.67;100.00;92951.59;5028725;28;20584;-72
2021/12/16 07:32:44;;;;;;;31.60;19.43;;;;;;;0.65;100.00;92939.16;5029976;28;20550;-73
2021/12/16 07:35:14;;;;;;;30.47;18.27;;;;;;;0.76;100.00;92949.91;5031931;28;20210;-73
2021/12/16 07:37:42;;;;;;;14.53;12.93;;;;;;;0.70;100.00;92935.00;5027657;28;20585;-73
2021/12/16 07:40:14;;;;;;;14.33;12.80;;;;;;;0.74;100.00;92946.59;5021744;28;20652;-74
2021/12/16 07:42:48;;;;;;;17.57;12.83;;;;;;;0.65;100.00;92944.13;5013956;28;20714;-73
2021/12/16 07:45:19;;;;;;;23.50;9.93;;;;;;;0.66;100.00;92950.75;5018970;28;21212;-73
2021/12/16 07:47:47;;;;;;;16.20;11.47;;;;;;;0.68;100.00;92951.56;5020071;28;20278;-74
2021/12/16 07:50:15;;;;;;;20.30;11.80;;;;;;;0.71;100.00;92940.81;5015576;28;20226;-73
2021/12/16 07:52:44;;;;;;;20.83;15.77;;;;;;;0.72;100.00;92940.81;5012306;28;20210;-72
2021/12/16 07:55:13;;;;;;;19.27;14.67;;;;;;;0.74;99.98;92950.72;5016553;28;20583;-72
2021/12/16 07:57:41;;;;;;;11.70;10.70;;;;;;;0.82;99.59;92954.88;5020864;28;20567;-72
2021/12/16 08:00:14;;;;;;;12.47;11.30;;;;;;;0.81;99.55;92955.69;5019968;28;20479;-72
2021/12/16 08:02:42;;;;;;;13.13;11.97;;;;;;;0.83;99.83;92958.19;5015802;28;20241;-72
2021/12/16 08:05:12;;;;;;;14.23;12.80;;;;;;;0.85;99.85;92954.03;5016047;28;20632;-72
2021/12/16 08:07:40;;;;;;;16.30;12.50;;;;;;;0.84;100.00;92949.91;5019703;28;20571;-71
2021/12/16 08:10:12;;;;;;;40.03;15.87;;;;;;;0.76;100.00;92946.59;5018368;28;20195;-72
2021/12/16 08:12:39;;;;;;;20.73;14.27;;;;;;;0.84;100.00;92944.94;5019037;28;20607;-72
2021/12/16 08:15:10;;;;;;;9.63;8.70;;;;;;;0.92;99.35;92948.22;5019740;28;20510;-73
2021/12/16 08:17:37;;;;;;;24.97;13.07;;;;;;;1.06;99.77;92944.06;5022681;28;20559;-72
2021/12/16 08:20:08;;;;;;;24.03;15.53;;;;;;;1.08;99.25;92932.44;5021867;28;20671;-73
2021/12/16 08:22:35;;;;;;;17.90;14.33;;;;;;;1.35;99.69;92958.94;5020140;28;20218;-74
2021/12/16 08:25:03;;;;;;;15.17;12.77;;;;;;;1.47;99.26;92956.38;5020489;28;20218;-73
2021/12/16 08:27:33;;;;;;;20.07;15.73;;;;;;;1.58;98.97;92951.34;5021440;28;20284;-75
2021/12/16 08:30:00;;;;;;;16.83;15.20;;;;;;;1.71;98.96;92959.63;5021035;28;20463;-75
2021/12/16 08:32:28;;;;;;;25.57;15.87;;;;;;;1.81;98.02;92958.72;5023395;28;20595;-73
2021/12/16 08:34:55;;;;;;;12.00;10.97;;;;;;;1.86;97.51;92949.59;5030598;28;20637;-73
2021/12/16 08:37:24;;;;;;;16.60;13.30;;;;;;;1.71;96.25;92960.44;5030644;28;20286;-74
2021/12/16 08:39:52;;;;;;;31.20;18.57;;;;;;;1.72;96.01;92946.34;5029115;28;20643;-72
2021/12/16 08:42:19;;;;;;;22.77;19.57;;;;;;;1.91;94.84;92962.84;5025581;28;20588;-72
2021/12/16 08:44:47;;;;;;;16.57;11.80;;;;;;;2.00;96.06;92946.19;5027378;28;20503;-72
2021/12/16 08:47:20;;;;;;;12.67;11.63;;;;;;;2.17;95.85;92952.75;5029987;28;20662;-72
2021/12/16 08:49:49;;;;;;;19.40;13.73;;;;;;;2.30;95.62;92947.69;5027547;28;20591;-73
2021/12/16 08:52:20;;;;;;;15.03;13.53;;;;;;;2.41;95.11;92952.59;5029805;28;20576;-72
2021/12/16 08:54:50;;;;;;;21.00;17.73;;;;;;;2.27;93.93;92941.88;5032224;28;20587;-72
2021/12/16 08:57:18;;;;;;;25.53;14.60;;;;;;;2.28;93.42;92938.53;5032023;28;20471;-73
2021/12/16 08:59:47;;;;;;;13.57;9.70;;;;;;;2.50;93.58;92962.47;5031358;28;20513;-74
2021/12/16 09:02:17;;;;;;;17.93;13.37;;;;;;;2.53;93.41;92936.72;5032055;28;20505;-74
2021/12/16 09:04:44;;;;;;;20.77;13.77;;;;;;;2.68;92.81;92949.06;5033931;28;20198;-75
2021/12/16 09:07:12;;;;;;;28.67;15.70;;;;;;;2.69;92.82;92934.09;5032026;28;20670;-76
2021/12/16 09:09:43;;;;;;;29.40;18.50;;;;;;;2.78;92.23;92940.66;5030065;28;20521;-73
2021/12/16 09:12:37;;;;;;;27.90;20.00;;;;;;;2.96;92.26;92949.66;5029379;28;20543;-74
2021/12/16 09:15:06;;;;;;;26.43;17.50;;;;;;;3.05;91.83;92942.06;5027485;28;20643;-75
2021/12/16 09:17:33;;;;;;;19.90;14.43;;;;;;;3.14;90.50;92952.81;5026034;28;20515;-74
2021/12/16 09:20:01;;;;;;;22.63;14.83;;;;;;;3.12;89.91;92939.50;5030554;28;20229;-75
2021/12/16 09:22:31;;;;;;;27.43;14.80;;;;;;;3.13;89.73;92946.16;5027626;28;20594;-75
2021/12/16 09:24:58;;;;;;;20.10;17.13;;;;;;;3.00;89.24;92931.31;5026162;28;20596;-75
2021/12/16 09:27:28;;;;;;;39.63;18.80;;;;;;;2.84;89.81;92938.94;5027781;28;20282;-74
2021/12/16 09:29:58;;;;;;;26.87;14.83;;;;;;;2.71;89.84;92914.09;5024302;28;20216;-75
2021/12/16 09:32:28;;;;;;;34.30;15.50;;;;;;;2.80;90.30;92931.50;5024805;28;20605;-75
2021/12/16 09:34:55;;;;;;;20.77;15.53;;;;;;;2.80;91.06;92927.34;5030351;28;20582;-75
2021/12/16 09:37:24;;;;;;;13.13;11.83;;;;;;;2.82;90.97;92920.66;5031418;28;20580;-75
2021/12/16 09:39:51;;;;;;;18.37;16.57;;;;;;;2.72;91.14;92894.13;5026342;28;20614;-74
2021/12/16 09:42:19;;;;;;;15.43;11.87;;;;;;;2.92;90.82;92908.94;5030503;28;20586;-75
2021/12/16 09:44:48;;;;;;;15.73;13.73;;;;;;;2.96;90.80;92895.59;5028413;28;20269;-74
2021/12/16 09:47:15;;;;;;;26.73;15.47;;;;;;;3.13;89.71;92922.88;5024704;28;20213;-75
2021/12/16 09:49:43;;;;;;;25.07;13.53;;;;;;;3.16;89.45;92900.34;5028285;28;20663;-74
2021/12/16 09:52:12;;;;;;;28.77;15.47;;;;;;;3.09;89.06;92916.25;5029069;28;20204;-75
2021/12/16 09:54:43;;;;;;;22.57;14.20;;;;;;;3.05;88.96;92902.13;5033569;28;20612;-75
2021/12/16 09:57:10;;;;;;;23.50;15.70;;;;;;;3.03;89.23;92904.66;5029949;28;20544;-75
2021/12/16 09:59:38;;;;;;;17.77;12.90;;;;;;;3.23;88.42;92912.78;5027478;28;20581;-75
2021/12/16 10:02:17;;;;;;;15.13;12.90;;;;;;;3.92;85.97;92921.97;5023505;28;20600;-75
2021/12/16 10:04:45;;;;;;;30.00;18.90;;;;;;;4.66;82.51;92930.91;5028982;28;20597;-74
2021/12/16 10:07:17;;;;;;;39.00;20.50;;;;;;;5.68;79.17;92937.44;5030232;28;20664;-74
2021/12/16 10:09:48;;;;;;;17.37;14.13;;;;;;;6.51;75.44;92949.97;5027735;28;20483;-76
2021/12/16 10:12:19;;;;;;;13.20;11.90;;;;;;;7.26;72.99;92949.03;5028729;28;20431;-75
2021/12/16 10:17:34;;;;;;;270.00;105.60;;;;;;;8.49;67.81;92954.91;5024393;28;20542;-74
2021/12/16 10:20:10;;;;;;;43.40;21.60;;;;;;;8.88;67.25;92945.31;5025242;28;20500;-72
2021/12/16 10:22:41;;;;;;;34.40;17.97;;;;;;;9.34;65.73;92937.13;5023809;28;20507;-74
2021/12/16 10:25:26;;;;;;;25.10;13.83;;;;;;;9.59;64.15;92935.41;5027351;28;20590;-74
2021/12/16 10:27:57;;;;;;;70.00;35.30;;;;;;;9.81;63.85;92916.13;5022209;28;20495;-72
2021/12/16 10:30:26;;;;;;;20.87;16.10;;;;;;;10.06;63.20;92916.09;5028208;28;20629;-74
2021/12/16 10:32:55;;;;;;;35.97;16.93;;;;;;;10.40;61.49;92930.88;5031108;28;20216;-73
2021/12/16 10:35:28;;;;;;;37.20;18.43;;;;;;;10.49;61.78;92919.59;5033988;28;20606;-74
2021/12/16 10:37:59;;;;;;;25.87;17.10;;;;;;;10.76;60.71;92931.19;5028008;28;20565;-73
2021/12/16 10:40:32;;;;;;;61.53;24.30;;;;;;;10.31;60.61;92926.97;5032972;28;20488;-74
2021/12/16 10:43:03;;;;;;;47.83;24.07;;;;;;;10.14;61.73;92906.53;5022313;28;20598;-74
2021/12/16 10:45:39;;;;;;;51.57;24.57;;;;;;;9.78;61.96;92888.50;5022844;28;20464;-75
2021/12/16 10:48:18;;;;;;;32.70;18.73;;;;;;;9.17;63.59;92882.22;5024721;28;20547;-73
2021/12/16 10:51:02;;;;;;;26.37;14.97;;;;;;;8.56;65.70;92868.25;5027947;28;20596;-73
2021/12/16 10:54:11;;;;;;;43.03;18.43;;;;;;;7.65;68.59;92846.59;5023133;28;20526;-73
2021/12/16 10:56:53;;;;;;;33.83;15.70;;;;;;;7.53;69.97;92843.59;5021973;28;20466;-73
2021/12/16 10:59:23;;;;;;;29.63;15.33;;;;;;;7.60;70.53;92850.09;5026448;28;20693;-73
2021/12/16 11:01:54;;;;;;;37.33;18.40;;;;;;;7.97;68.79;92854.91;5027932;28;20561;-73
2021/12/16 11:04:31;;;;;;;31.50;17.37;;;;;;;8.12;68.31;92854.44;5023963;28;20597;-73
2021/12/16 11:07:01;;;;;;;23.20;11.30;;;;;;;8.06;68.91;92847.91;5022777;28;20547;-75
2021/12/16 11:09:36;;;;;;;12.50;11.03;;;;;;;7.57;70.44;92842.63;5030302;28;20202;-73
2021/12/16 11:12:10;;;;;;;8.80;8.10;;;;;;;7.41;71.88;92827.16;5028818;28;20600;-73
2021/12/16 11:14:39;;;;;;;10.30;7.97;;;;;;;7.54;72.04;92838.53;5026756;28;20586;-73
2021/12/16 11:17:09;;;;;;;8.87;7.93;;;;;;;7.65;71.01;92839.06;5028173;28;20545;-73
2021/12/16 11:19:43;;;;;;;33.17;19.70;;;;;;;7.65;70.92;92811.41;5024861;28;20604;-74
2021/12/16 11:22:14;;;;;;;21.00;13.57;;;;;;;7.68;70.19;92806.28;5027823;28;20204;-73
2021/12/16 11:24:42;;;;;;;21.33;13.70;;;;;;;7.89;69.99;92825.75;5028191;28;20236;-73
2021/12/16 11:27:30;;;;;;;27.27;14.03;;;;;;;8.35;68.10;92839.50;5030936;28;20608;-73
2021/12/16 11:29:59;;;;;;;22.10;12.13;;;;;;;8.45;67.12;92824.97;5031325;28;20505;-73
2021/12/16 11:32:42;;;;;;;23.60;13.00;;;;;;;8.62;67.15;92832.78;5027490;28;20494;-73
2021/12/16 11:35:33;;;;;;;15.33;10.47;;;;;;;8.55;67.95;92824.63;5028736;28;20488;-73
2021/12/16 11:38:06;;;;;;;15.23;10.77;;;;;;;8.43;68.32;92819.16;5022526;28;20554;-73
2021/12/16 11:41:06;;;;;;;17.73;13.17;;;;;;;8.42;69.42;92815.81;5026791;28;20554;-73
2021/12/16 11:43:38;;;;;;;10.70;9.00;;;;;;;8.66;69.53;92814.22;5026993;28;20616;-73
2021/12/16 11:46:10;;;;;;;12.20;8.77;;;;;;;9.12;68.27;92811.81;5023976;28;20587;-73
2021/12/16 11:48:40;;;;;;;9.53;8.07;;;;;;;9.38;66.46;92798.28;5033393;28;20595;-74
2021/12/16 11:51:12;;;;;;;10.53;9.70;;;;;;;10.12;64.59;92837.63;5037254;28;20620;-75
2021/12/16 11:53:44;;;;;;;11.80;10.73;;;;;;;10.48;63.37;92832.91;5029651;28;20647;-75
2021/12/16 11:56:12;;;;;;;14.07;10.03;;;;;;;10.49;62.76;92849.69;5023530;28;20529;-76
2021/12/16 11:58:42;;;;;;;12.60;11.17;;;;;;;10.20;63.46;92844.94;5031410;28;20267;-76
2021/12/16 12:01:16;;;;;;;20.77;12.50;;;;;;;9.37;64.97;92758.00;5028270;28;20568;-75
2021/12/16 12:03:44;;;;;;;32.27;15.63;;;;;;;9.38;66.82;92825.19;5027575;28;20592;-75
2021/12/16 12:06:25;;;;;;;16.67;12.17;;;;;;;9.04;69.21;92812.94;5031137;28;20655;-75
2021/12/16 12:08:56;;;;;;;20.70;12.97;;;;;;;8.85;70.57;92809.38;5030219;28;20687;-75
2021/12/16 12:11:27;;;;;;;27.60;13.53;;;;;;;9.00;70.35;92806.38;5034034;28;20560;-75
2021/12/16 12:13:57;;;;;;;18.73;10.83;;;;;;;9.10;68.86;92802.66;5033595;28;20453;-76
2021/12/16 12:16:30;;;;;;;25.23;13.57;;;;;;;8.69;70.16;92773.78;5035102;28;20581;-77
2021/12/16 12:19:01;;;;;;;29.80;16.30;;;;;;;8.62;70.83;92815.97;5031157;28;20305;-77
2021/12/16 12:21:34;;;;;;;30.23;17.40;;;;;;;8.00;72.49;92809.56;5029620;28;20578;-78
2021/12/16 12:24:07;;;;;;;28.57;14.63;;;;;;;7.85;73.77;92808.28;5031464;28;20614;-79
2021/12/16 12:26:36;;;;;;;26.33;14.13;;;;;;;7.86;73.93;92798.19;5034699;28;20582;-78
2021/12/16 12:29:08;;;;;;;23.30;13.50;;;;;;;7.70;74.12;92763.50;5028898;28;20228;-78
2021/12/16 12:31:39;;;;;;;29.13;13.00;;;;;;;8.10;73.83;92820.97;5028263;28;20549;-77
2021/12/16 12:34:07;;;;;;;20.43;14.37;;;;;;;7.34;73.70;92736.03;5030459;28;20465;-76
2021/12/16 12:36:36;;;;;;;20.30;13.70;;;;;;;7.24;75.90;92792.44;5034980;28;20603;-76
2021/12/16 12:39:05;;;;;;;27.80;13.80;;;;;;;7.09;76.88;92805.44;5033082;28;20198;-76
2021/12/16 12:41:33;;;;;;;27.97;14.53;;;;;;;6.86;78.49;92798.50;5036418;28;20598;-75
2021/12/16 12:44:04;;;;;;;19.30;13.23;;;;;;;6.57;80.19;92809.28;5028098;28;20672;-74
2021/12/16 12:46:33;;;;;;;21.40;13.60;;;;;;;6.47;81.82;92802.00;5029713;28;20558;-75
2021/12/16 12:49:03;;;;;;;43.77;18.23;;;;;;;6.03;84.51;92803.03;5029047;28;20612;-75
2021/12/16 12:51:37;;;;;;;15.60;13.53;;;;;;;5.89;84.42;92793.31;5034703;28;20565;-74
2021/12/16 12:54:16;;;;;;;18.70;13.50;;;;;;;5.83;85.25;92799.25;5030313;28;20491;-74
2021/12/16 12:56:44;;;;;;;14.17;11.80;;;;;;;5.70;85.41;92787.84;5024179;28;20609;-74
2021/12/16 12:59:15;;;;;;;20.73;13.20;;;;;;;5.74;85.27;92798.66;5029336;28;20528;-75
2021/12/16 13:01:46;;;;;;;24.23;14.77;;;;;;;5.55;86.21;92794.88;5031510;28;20553;-77
2021/12/16 13:04:18;;;;;;;29.50;16.23;;;;;;;5.42;87.51;92790.13;5030491;28;20692;-76
2021/12/16 13:07:01;;;;;;;25.23;15.90;;;;;;;5.28;87.66;92786.25;5026347;28;20476;-75
2021/12/16 13:09:41;;;;;;;29.27;16.13;;;;;;;5.12;89.04;92797.44;5022953;28;20481;-76
2021/12/16 13:12:33;;;;;;;28.03;18.33;;;;;;;4.91;89.88;92796.97;5029591;28;20233;-76
2021/12/16 13:15:10;;;;;;;31.90;20.03;;;;;;;4.57;91.43;92783.41;5033939;28;20275;-75
2021/12/16 13:23:36;;;;;;;69.93;40.47;;;;;;;4.46;91.84;92787.78;5028388;28;20611;-74
2021/12/16 13:29:12;;;;;;;70.03;36.77;;;;;;;4.47;93.58;92796.94;5075993;27;20967;-75
2021/12/16 13:31:53;;;;;;;60.93;36.83;;;;;;;4.40;94.14;92795.38;5074027;27;20584;-75
2021/12/16 13:34:48;;;;;;;56.37;30.77;;;;;;;4.32;94.66;92794.69;5078488;27;20596;-75
2021/12/16 13:37:23;;;;;;;69.17;33.87;;;;;;;4.26;94.12;92777.28;5075129;27;20537;-76
2021/12/16 13:39:55;;;;;;;38.23;22.63;;;;;;;4.37;93.40;92795.44;5073077;27;20611;-75
2021/12/16 13:42:23;;;;;;;29.40;16.77;;;;;;;4.26;90.61;92789.81;5074849;27;20518;-76
2021/12/16 13:45:00;;;;;;;25.90;17.03;;;;;;;4.33;90.55;92808.88;5073783;27;20540;-76
2021/12/16 13:47:41;;;;;;;22.13;16.93;;;;;;;4.21;90.92;92799.06;5073392;27;20654;-75